Terminal Aerodrome Forecast
Issued by NWS

Home | Current Version | Previous Version | Text Only | Print | Product List | Glossary On
Versions: 1 2 3 4 5 6 7 8 9 10 11 12 13 14 15
000
FTUS43 KDTX 262333
TAFMBS
TAF
KMBS 262333Z 2700/2724 26014G22KT P6SM SCT040 BKN070
      TEMPO 2700/2703 -SHRA
     FM270300 27009KT P6SM SCT040 BKN070
     FM270500 28008KT P6SM BKN025
     FM270800 28007KT P6SM SCT040
     FM271700 30012KT P6SM BKN050
     FM272300 27008KT P6SM SCT050=

USA.gov is the U.S. government's official web portal to all federal, state and local government web resources and services.